createdAt,value
2022-12-11T00:00:45.202Z,3.38
2022-12-11T00:03:47.550Z,2.00
2022-12-11T00:06:50.559Z,2.10
2022-12-11T00:09:52.354Z,2.08
2022-12-11T00:12:54.087Z,2.03
2022-12-11T00:15:57.855Z,1.70
2022-12-11T00:18:59.873Z,1.50
2022-12-11T00:22:01.517Z,1.37
2022-12-11T00:25:03.360Z,3.17
2022-12-11T00:28:05.046Z,3.15
2022-12-11T00:31:08.660Z,4.97
2022-12-11T00:34:11.996Z,2.73
2022-12-11T00:37:13.800Z,2.20
2022-12-11T00:40:15.543Z,1.65
2022-12-11T00:43:17.729Z,1.92
2022-12-11T00:46:19.388Z,1.90
2022-12-11T00:49:21.158Z,1.50
2022-12-11T00:52:22.965Z,2.97
2022-12-11T00:55:25.481Z,2.45
2022-12-11T00:58:27.805Z,3.63
2022-12-11T01:01:29.613Z,2.63
2022-12-11T01:04:31.445Z,2.63
2022-12-11T01:07:33.054Z,2.37
2022-12-11T01:10:35.394Z,2.50
2022-12-11T01:13:38.262Z,3.25
2022-12-11T01:16:40.010Z,2.80
2022-12-11T01:19:41.736Z,2.83
2022-12-11T01:22:43.394Z,2.63
2022-12-11T01:25:45.042Z,2.92
2022-12-11T01:28:51.589Z,2.20
2022-12-11T01:31:53.191Z,3.17
2022-12-11T01:34:54.942Z,2.57
2022-12-11T01:37:56.598Z,2.50
2022-12-11T01:40:58.175Z,2.50
2022-12-11T01:44:04.002Z,2.42
2022-12-11T01:47:05.658Z,2.80
2022-12-11T01:50:10.262Z,2.53
2022-12-11T01:53:16.756Z,1.47
2022-12-11T01:56:19.164Z,2.40
2022-12-11T01:59:24.693Z,1.88
2022-12-11T02:02:29.970Z,1.65
2022-12-11T02:05:31.700Z,1.70
2022-12-11T02:08:33.448Z,1.30
2022-12-11T02:11:47.935Z,1.58
2022-12-11T02:15:02.154Z,2.00
2022-12-11T02:18:36.737Z,1.60
2022-12-11T02:21:43.468Z,1.80
2022-12-11T02:25:03.834Z,1.57
2022-12-11T02:28:11.322Z,1.30
2022-12-11T02:31:20.311Z,1.38
2022-12-11T02:34:32.199Z,2.25
2022-12-11T02:37:37.756Z,1.10
2022-12-11T02:40:42.231Z,1.10
2022-12-11T02:43:45.389Z,1.23
2022-12-11T02:46:47.316Z,1.58
2022-12-11T02:49:51.933Z,1.00
2022-12-11T02:52:56.532Z,1.07
2022-12-11T02:56:06.940Z,1.80
2022-12-11T02:59:21.518Z,1.60
2022-12-11T03:02:24.034Z,1.75
2022-12-11T03:05:27.229Z,1.50
2022-12-11T03:08:28.918Z,4.57
2022-12-11T03:11:30.571Z,2.27
2022-12-11T03:14:32.221Z,1.50
2022-12-11T03:17:40.028Z,2.17
2022-12-11T03:20:50.209Z,1.85
2022-12-11T03:24:12.319Z,2.40
2022-12-11T03:27:26.669Z,1.60
2022-12-11T03:30:28.998Z,1.65
2022-12-11T03:33:36.384Z,1.63
2022-12-11T03:36:39.964Z,1.90
2022-12-11T03:39:49.938Z,2.07
2022-12-11T03:42:53.534Z,1.80
2022-12-11T03:45:56.906Z,2.15
2022-12-11T03:49:03.286Z,2.25
2022-12-11T03:52:06.448Z,2.60
2022-12-11T03:55:10.460Z,2.20
2022-12-11T03:58:12.265Z,2.47
2022-12-11T04:01:13.871Z,4.75
2022-12-11T04:04:15.735Z,7.40
2022-12-11T04:07:17.353Z,5.95
2022-12-11T04:10:18.968Z,8.60
2022-12-11T04:13:20.577Z,10.10
2022-12-11T04:16:22.225Z,8.02
2022-12-11T04:19:43.254Z,8.63
2022-12-11T04:23:10.960Z,9.60
2022-12-11T04:26:16.823Z,8.17
2022-12-11T04:29:18.507Z,8.17
2022-12-11T04:32:20.097Z,8.73
2022-12-11T04:35:22.258Z,7.97
2022-12-11T04:38:24.025Z,6.35
2022-12-11T04:41:25.725Z,9.27
2022-12-11T04:44:27.342Z,9.13
2022-12-11T04:47:28.955Z,10.10
2022-12-11T04:50:30.593Z,8.27
2022-12-11T04:53:32.569Z,7.47
2022-12-11T04:56:34.248Z,8.87
2022-12-11T04:59:37.171Z,7.73
2022-12-11T05:02:40.460Z,9.40
2022-12-11T05:05:51.298Z,8.40
2022-12-11T05:08:53.566Z,6.93
2022-12-11T05:11:55.553Z,8.07
2022-12-11T05:14:57.182Z,7.70
2022-12-11T05:17:58.782Z,10.35
2022-12-11T05:21:02.706Z,9.95
2022-12-11T05:24:04.634Z,7.90
2022-12-11T05:27:06.483Z,10.43
2022-12-11T05:30:10.103Z,10.00
2022-12-11T05:33:11.730Z,10.02
2022-12-11T05:36:19.004Z,8.50
2022-12-11T05:39:21.111Z,8.20
2022-12-11T05:42:27.136Z,8.77
2022-12-11T05:45:30.525Z,8.13
2022-12-11T05:48:32.152Z,9.70
2022-12-11T05:51:34.754Z,11.98
2022-12-11T05:54:36.376Z,10.15
2022-12-11T05:57:38.047Z,13.83
2022-12-11T06:00:41.933Z,9.63
2022-12-11T06:03:43.850Z,10.93
2022-12-11T06:06:45.516Z,8.45
2022-12-11T06:09:47.160Z,8.70
2022-12-11T06:12:48.755Z,10.33
2022-12-11T06:15:50.351Z,11.67
2022-12-11T06:18:55.793Z,9.45
2022-12-11T06:21:59.797Z,9.95
2022-12-11T06:25:01.414Z,8.52
2022-12-11T06:28:03.078Z,9.77
2022-12-11T06:31:05.116Z,8.23
2022-12-11T06:34:06.828Z,9.15
2022-12-11T06:37:08.445Z,10.15
2022-12-11T06:40:11.853Z,10.85
2022-12-11T06:43:13.436Z,11.03
2022-12-11T06:46:17.952Z,12.73
2022-12-11T06:49:19.709Z,11.38
2022-12-11T06:52:25.442Z,11.48
2022-12-11T06:55:27.065Z,10.27
2022-12-11T06:58:28.741Z,12.07
2022-12-11T07:01:31.491Z,11.57
2022-12-11T07:04:33.315Z,10.23
2022-12-11T07:07:34.977Z,13.50
2022-12-11T07:10:38.822Z,11.15
2022-12-11T07:13:42.186Z,10.73
2022-12-11T07:16:43.959Z,11.83
2022-12-11T07:19:45.692Z,11.43
2022-12-11T07:22:47.356Z,13.93
2022-12-11T07:25:49.363Z,16.17
2022-12-11T07:28:51.246Z,13.07
2022-12-11T07:31:52.979Z,13.47
2022-12-11T07:34:54.777Z,13.40
2022-12-11T07:37:56.403Z,11.07
2022-12-11T07:41:05.456Z,10.95
2022-12-11T07:44:07.196Z,13.27
2022-12-11T07:47:08.815Z,12.50
2022-12-11T07:50:10.853Z,13.20
2022-12-11T07:53:12.486Z,13.25
2022-12-11T07:56:15.702Z,12.70
2022-12-11T07:59:17.343Z,12.93
2022-12-11T08:02:18.976Z,13.03
2022-12-11T08:05:20.817Z,13.60
2022-12-11T08:08:22.485Z,13.65
2022-12-11T08:11:24.984Z,14.23
2022-12-11T08:14:26.659Z,19.13
2022-12-11T08:17:31.795Z,12.40
2022-12-11T08:20:39.185Z,20.48
2022-12-11T08:23:41.294Z,15.18
2022-12-11T08:26:42.921Z,13.18
2022-12-11T08:29:45.742Z,11.53
2022-12-11T08:32:47.367Z,12.33
2022-12-11T08:35:49.033Z,10.85
2022-12-11T08:38:51.558Z,10.95
2022-12-11T08:41:53.199Z,9.50
2022-12-11T08:44:54.844Z,8.97
2022-12-11T08:47:58.054Z,9.90
2022-12-11T08:51:04.463Z,11.70
2022-12-11T08:54:06.110Z,15.25
2022-12-11T08:57:07.717Z,12.43
2022-12-11T09:00:12.382Z,9.53
2022-12-11T09:03:14.039Z,11.77
2022-12-11T09:06:18.203Z,12.25
2022-12-11T09:09:19.813Z,10.15
2022-12-11T09:12:21.433Z,10.30
2022-12-11T09:15:23.061Z,14.97
2022-12-11T09:18:24.723Z,11.70
2022-12-11T09:21:29.734Z,12.98
2022-12-11T09:24:31.465Z,10.13
2022-12-11T09:27:34.108Z,11.38
2022-12-11T09:30:37.271Z,10.40
2022-12-11T09:33:39.303Z,11.67
2022-12-11T09:36:42.549Z,8.52
2022-12-11T09:39:44.261Z,10.68
2022-12-11T09:43:06.448Z,14.70
2022-12-11T09:46:12.543Z,13.83
2022-12-11T09:49:27.182Z,9.43
2022-12-11T09:52:48.758Z,10.30
2022-12-11T09:56:20.982Z,19.73
2022-12-11T09:59:44.821Z,28.25
2022-12-11T10:02:55.476Z,17.87
2022-12-11T10:06:18.102Z,15.60
2022-12-11T10:09:28.027Z,12.20
2022-12-11T10:12:45.719Z,12.15
2022-12-11T10:16:02.334Z,20.65
2022-12-11T10:19:04.487Z,12.83
2022-12-11T10:22:14.414Z,11.57
2022-12-11T10:25:31.965Z,15.57
2022-12-11T10:28:35.017Z,15.85
2022-12-11T10:32:12.069Z,11.82
2022-12-11T10:35:38.414Z,13.13
2022-12-11T10:38:45.482Z,27.70
2022-12-11T10:41:49.716Z,49.65
2022-12-11T10:45:03.395Z,26.80
2022-12-11T10:48:10.477Z,18.67
2022-12-11T10:51:12.166Z,19.80
2022-12-11T10:54:31.102Z,33.07
2022-12-11T10:57:36.104Z,26.40
2022-12-11T11:00:41.010Z,11.80
2022-12-11T11:03:55.372Z,15.27
2022-12-11T11:07:12.750Z,14.77
2022-12-11T11:10:17.883Z,13.47
2022-12-11T11:13:22.308Z,17.33
2022-12-11T11:16:25.508Z,13.30
2022-12-11T11:19:31.783Z,12.57
2022-12-11T11:22:34.010Z,13.97
2022-12-11T11:25:35.729Z,16.77
2022-12-11T11:28:49.996Z,12.68
2022-12-11T11:31:51.687Z,11.77
2022-12-11T11:34:53.398Z,11.60
2022-12-11T11:38:19.953Z,11.87
2022-12-11T11:41:29.300Z,12.50
2022-12-11T11:44:37.075Z,9.93
2022-12-11T11:47:50.910Z,9.68
2022-12-11T11:50:53.914Z,13.68
2022-12-11T11:53:59.024Z,12.43
2022-12-11T11:57:10.960Z,9.50
2022-12-11T12:00:16.169Z,9.70
2022-12-11T12:03:20.006Z,11.68
2022-12-11T12:06:30.623Z,15.70
2022-12-11T12:09:48.239Z,13.73
2022-12-11T12:13:30.083Z,12.90
2022-12-11T12:16:52.820Z,15.45
2022-12-11T12:20:11.119Z,16.02
2022-12-11T12:23:12.717Z,16.33
2022-12-11T12:26:36.168Z,13.93
2022-12-11T12:29:53.475Z,14.57
2022-12-11T12:33:01.130Z,16.08
2022-12-11T12:36:21.123Z,25.65
2022-12-11T12:39:38.113Z,16.60
2022-12-11T12:43:11.021Z,22.33
2022-12-11T12:46:27.839Z,17.60
2022-12-11T12:49:42.279Z,10.77
2022-12-11T12:52:44.874Z,18.85
2022-12-11T12:55:48.527Z,23.13
2022-12-11T12:58:50.274Z,17.93
2022-12-11T13:01:57.140Z,12.23
2022-12-11T13:05:05.793Z,13.40
2022-12-11T13:08:08.106Z,20.60
2022-12-11T13:11:12.677Z,16.92
2022-12-11T13:14:15.307Z,20.33
2022-12-11T13:17:22.667Z,23.23
2022-12-11T13:20:30.738Z,20.30
2022-12-11T13:23:34.045Z,18.88
2022-12-11T13:26:35.721Z,19.05
2022-12-11T13:29:42.083Z,22.90
2022-12-11T13:32:58.716Z,16.47
2022-12-11T13:36:15.779Z,13.40
2022-12-11T13:39:25.954Z,16.27
2022-12-11T13:42:36.120Z,19.77
2022-12-11T13:45:44.555Z,12.43
2022-12-11T13:48:55.267Z,12.33
2022-12-11T13:51:59.951Z,12.05
2022-12-11T13:55:01.705Z,12.80
2022-12-11T13:58:03.340Z,11.55
2022-12-11T14:01:05.196Z,11.97
2022-12-11T14:04:14.028Z,12.27
2022-12-11T14:07:20.454Z,8.57
2022-12-11T14:10:32.408Z,8.10
2022-12-11T14:13:37.187Z,10.07
2022-12-11T14:16:39.318Z,12.43
2022-12-11T14:19:47.337Z,12.33
2022-12-11T14:22:49.038Z,14.77
2022-12-11T14:26:17.601Z,12.63
2022-12-11T14:29:30.271Z,11.63
2022-12-11T14:32:36.875Z,12.67
2022-12-11T14:35:42.014Z,14.90
2022-12-11T14:38:47.367Z,15.73
2022-12-11T14:41:57.824Z,10.73
2022-12-11T14:45:20.609Z,10.23
2022-12-11T14:48:28.477Z,12.93
2022-12-11T14:51:35.535Z,20.97
2022-12-11T14:54:42.909Z,17.55
2022-12-11T14:57:48.354Z,16.30
2022-12-11T15:01:00.738Z,16.02
2022-12-11T15:04:02.378Z,14.70
2022-12-11T15:07:19.712Z,13.37
2022-12-11T15:10:31.300Z,14.55
2022-12-11T15:13:35.201Z,22.42
2022-12-11T15:16:40.459Z,15.80
2022-12-11T15:19:52.657Z,15.63
2022-12-11T15:22:57.577Z,12.77
2022-12-11T15:26:01.632Z,11.18
2022-12-11T15:29:32.701Z,10.98
2022-12-11T15:32:34.523Z,12.05
2022-12-11T15:35:38.092Z,12.47
2022-12-11T15:38:42.038Z,13.17
2022-12-11T15:41:43.718Z,12.65
2022-12-11T15:44:45.554Z,11.13
2022-12-11T15:47:48.571Z,11.55
2022-12-11T15:50:50.807Z,25.27
2022-12-11T15:53:52.467Z,63.87
2022-12-11T15:56:55.198Z,74.13
2022-12-11T15:59:58.337Z,76.85
2022-12-11T16:03:00.211Z,57.45
2022-12-11T16:06:02.298Z,60.00
2022-12-11T16:09:05.124Z,58.93
2022-12-11T16:12:07.271Z,61.97
2022-12-11T16:15:10.659Z,60.97
2022-12-11T16:18:16.700Z,54.40
2022-12-11T16:21:21.618Z,62.57
2022-12-11T16:24:23.546Z,62.00
2022-12-11T16:27:25.235Z,48.45
2022-12-11T16:30:29.236Z,42.47
2022-12-11T16:33:30.894Z,38.08
2022-12-11T16:36:32.505Z,35.27
2022-12-11T16:39:37.019Z,38.20
2022-12-11T16:42:38.880Z,37.55
2022-12-11T16:45:41.973Z,34.85
2022-12-11T16:48:47.578Z,33.55
2022-12-11T16:51:49.839Z,33.90
2022-12-11T16:54:51.473Z,32.07
2022-12-11T16:57:53.132Z,29.98
2022-12-11T17:01:02.632Z,29.75
2022-12-11T17:04:04.304Z,38.47
2022-12-11T17:07:06.204Z,37.50
2022-12-11T17:10:08.484Z,30.20
2022-12-11T17:13:10.095Z,30.38
2022-12-11T17:16:16.806Z,27.85
2022-12-11T17:19:19.751Z,24.80
2022-12-11T17:22:21.517Z,18.60
2022-12-11T17:25:23.509Z,18.80
2022-12-11T17:28:25.673Z,16.73
2022-12-11T17:31:27.803Z,17.08
2022-12-11T17:34:36.088Z,20.05
2022-12-11T17:37:39.710Z,15.90
2022-12-11T17:40:44.221Z,16.10
2022-12-11T17:43:45.902Z,16.65
2022-12-11T17:46:47.706Z,18.98
2022-12-11T17:49:49.499Z,15.23
2022-12-11T17:52:51.671Z,20.60
2022-12-11T17:55:54.027Z,14.97
2022-12-11T17:58:55.693Z,29.40
2022-12-11T18:01:57.917Z,25.95
2022-12-11T18:04:59.784Z,22.95
2022-12-11T18:08:02.127Z,23.10
2022-12-11T18:11:09.995Z,28.47
2022-12-11T18:14:16.881Z,24.25
2022-12-11T18:17:18.939Z,29.00
2022-12-11T18:20:24.749Z,31.30
2022-12-11T18:23:26.610Z,21.50
2022-12-11T18:26:29.086Z,17.73
2022-12-11T18:29:30.922Z,19.77
2022-12-11T18:32:32.843Z,19.15
2022-12-11T18:35:34.616Z,16.98
2022-12-11T18:38:38.132Z,25.10
2022-12-11T18:41:40.140Z,32.33
2022-12-11T18:44:44.391Z,23.08
2022-12-11T18:47:47.238Z,22.65
2022-12-11T18:50:51.370Z,19.75
2022-12-11T18:53:53.614Z,15.83
2022-12-11T18:56:55.502Z,20.27
2022-12-11T19:00:02.287Z,17.38
2022-12-11T19:03:05.289Z,20.15
2022-12-11T19:06:13.269Z,20.50
2022-12-11T19:09:16.002Z,21.00
2022-12-11T19:12:18.221Z,22.57
2022-12-11T19:15:23.814Z,19.30
2022-12-11T19:18:26.772Z,22.30
2022-12-11T19:21:28.741Z,23.23
2022-12-11T19:24:30.723Z,20.50
2022-12-11T19:27:32.931Z,26.10
2022-12-11T19:30:35.270Z,21.95
2022-12-11T19:33:37.345Z,21.67
2022-12-11T19:36:40.636Z,22.17
2022-12-11T19:39:42.633Z,25.97
2022-12-11T19:42:44.810Z,26.70
2022-12-11T19:45:48.137Z,27.83
2022-12-11T19:48:53.805Z,24.65
2022-12-11T19:51:55.530Z,25.83
2022-12-11T19:55:01.777Z,26.87
2022-12-11T19:58:04.174Z,23.67
2022-12-11T20:01:07.400Z,23.15
2022-12-11T20:04:13.223Z,26.75
2022-12-11T20:07:14.866Z,26.42
2022-12-11T20:10:18.101Z,23.77
2022-12-11T20:13:21.524Z,23.33
2022-12-11T20:16:45.856Z,21.92
2022-12-11T20:19:45.339Z,24.92
2022-12-11T20:22:47.430Z,32.92
2022-12-11T20:25:50.077Z,37.03
2022-12-11T20:28:54.227Z,27.47
2022-12-11T20:31:55.880Z,30.65
2022-12-11T20:34:58.273Z,33.78
2022-12-11T20:38:00.112Z,27.52
2022-12-11T20:41:02.036Z,28.70
2022-12-11T20:44:03.741Z,27.20
2022-12-11T20:47:06.783Z,26.83
2022-12-11T20:50:11.053Z,26.52
2022-12-11T20:53:13.107Z,27.88
2022-12-11T20:56:18.895Z,30.10
2022-12-11T20:59:20.935Z,29.37
2022-12-11T21:02:23.737Z,32.28
2022-12-11T21:05:25.618Z,41.67
2022-12-11T21:08:27.272Z,30.42
2022-12-11T21:11:29.718Z,26.97
2022-12-11T21:14:32.010Z,26.00
2022-12-11T21:17:34.874Z,26.48
2022-12-11T21:20:36.974Z,31.27
2022-12-11T21:23:39.150Z,28.10
2022-12-11T21:26:40.770Z,29.90
2022-12-11T21:29:42.391Z,24.53
2022-12-11T21:32:44.804Z,27.13
2022-12-11T21:35:54.585Z,29.95
2022-12-11T21:38:58.780Z,25.98
2022-12-11T21:42:01.234Z,29.97
2022-12-11T21:48:25.618Z,35.78
2022-12-11T21:51:35.968Z,27.90
2022-12-11T21:54:39.732Z,25.83
2022-12-11T21:57:41.494Z,22.83
2022-12-11T22:00:46.681Z,20.50
2022-12-11T22:03:50.117Z,24.77
2022-12-11T22:06:51.786Z,20.90
2022-12-11T22:09:53.515Z,19.83
2022-12-11T22:12:55.309Z,18.40
2022-12-11T22:15:56.988Z,20.03
2022-12-11T22:18:58.918Z,18.48
2022-12-11T22:22:00.843Z,17.63
2022-12-11T22:25:03.668Z,23.45
2022-12-11T22:28:05.447Z,16.40
2022-12-11T22:31:13.997Z,19.77
2022-12-11T22:34:15.737Z,19.77
2022-12-11T22:37:17.328Z,19.60
2022-12-11T22:40:19.150Z,16.10
2022-12-11T22:43:21.718Z,17.73
2022-12-11T22:46:27.256Z,17.93
2022-12-11T22:49:29.027Z,18.23
2022-12-11T22:52:31.085Z,16.08
2022-12-11T22:55:33.149Z,14.52
2022-12-11T22:58:35.369Z,15.03
2022-12-11T23:01:37.396Z,15.80
2022-12-11T23:04:39.843Z,17.20
2022-12-11T23:07:41.550Z,14.95
2022-12-11T23:10:43.166Z,19.65
2022-12-11T23:13:45.251Z,20.77
2022-12-11T23:16:47.169Z,20.23
2022-12-11T23:19:49.269Z,21.70
2022-12-11T23:22:51.422Z,22.70
2022-12-11T23:25:53.275Z,23.50
2022-12-11T23:28:56.492Z,21.40
2022-12-11T23:31:58.321Z,24.73
2022-12-11T23:34:59.975Z,23.85
2022-12-11T23:38:01.608Z,23.75
2022-12-11T23:41:04.231Z,23.13
2022-12-11T23:44:06.209Z,26.07
2022-12-11T23:47:07.776Z,24.33
2022-12-11T23:50:10.005Z,24.27
2022-12-11T23:53:12.128Z,23.45
2022-12-11T23:56:17.166Z,27.15
2022-12-11T23:59:18.802Z,25.90
